Weather observations for the past three days for
Rolla / Vichy, Rolla National Airport
Metric (Imperial)
Date Time (cdt) Wind (kph) Vis. (km) Weather Sky Cond. Temperature (ºC) Relative Humidity Wind Chill (°C) Heat Index (°C) Pressure Precipitation (cm)
Air Dwpt 6 hour altimeter (cm) sea level (mb) 1 hr 3 hr 6 hr
Max. Min.
03 17:53 E 13 16.09 Mostly Cloudy BKN090 34.4 21.1 46% 38 76.02 1011.9
03 16:53 SE 15 16.09 Mostly Cloudy BKN085 36.1 20.6 40% 39 76 1011.7
03 15:53 SE 11 16.09 Fair CLR 36.1 20 39% 39 76.05 1012.2
03 13:53 Vrbl 11 16.09 Fair CLR 35 20 41% 38 76.15 1013.5
03 12:53 SW 6 16.09 Fair CLR 34.4 21.1 34.4 22.8 46% 38 76.2 1014.3
03 11:53 SW 13 16.09 Fair CLR 32.8 21.1 50% 36 76.25 1015.0
03 10:53 SW 9 16.09 Fair CLR 31.7 21.7 55% 35 76.3 1015.6
03 09:53 SW 15 16.09 Fair CLR 29.4 21.7 63% 32 76.3 1015.7
03 08:53 SW 15 16.09 Fair CLR 27.8 21.7 69% 30 76.3 1015.8
03 07:53 S 15 16.09 Fair CLR 25.6 21.1 76% 27 76.3 1015.7
03 06:53 S 13 16.09 Fair CLR 22.8 20 27.8 22.2 84% 76.28 1015.3
03 05:53 SW 13 16.09 Fair CLR 23.3 20 82% 76.25 1015.0
03 04:53 S 15 16.09 Fair CLR 24.4 20 77% 25 76.23 1014.7
03 03:53 S 13 16.09 Fair CLR 25 19.4 71% 26 76.23 1014.7
03 02:53 S 13 16.09 Fair CLR 25.6 20 71% 27 76.2 1014.4
03 01:53 S 13 16.09 Fair CLR 26.7 20 67% 28 76.23 1014.6
03 00:53 S 17 16.09 Fair CLR 27.8 20 31.7 26.7 63% 29 76.2 1014.4
02 23:53 S 15 16.09 Fair CLR 27.8 20 63% 29 76.2 1014.2
02 22:53 SE 11 16.09 Fair CLR 26.7 21.1 71% 28 76.2 1014.2
02 21:53 SE 13 16.09 Fair CLR 27.2 22.2 74% 30 76.17 1014.1
02 20:53 SE 13 16.09 A Few Clouds FEW090 28.3 22.2 70% 31 76.15 1013.8
02 19:53 E 13 16.09 Mostly Cloudy BKN095 29.4 21.7 63% 32 76.1 1013.1
02 18:53 E 9 16.09 Fair CLR 31.7 21.7 35.6 31.7 55% 35 76.1 1013.1
02 17:53 SE 9 16.09 Fair CLR 33.9 21.7 49% 38 76.12 1013.2
02 16:53 SE 9 16.09 Mostly Cloudy SCT080 BKN100 33.9 21.1 47% 37 76.12 1013.4
02 15:53 E 13 16.09 Mostly Cloudy SCT075 BKN090 33.3 21.1 49% 37 76.15 1013.8
02 14:53 E 9 16.09 A Few Clouds FEW100 35 20 41% 38 76.23 1014.5
02 13:53 S 9 16.09 A Few Clouds FEW070 34.4 21.1 46% 38 76.28 1015.3
02 12:53 SW 13 16.09 Fair CLR 32.8 21.1 34.4 23.9 50% 36 76.33 1016.0
02 11:53 SW 11 16.09 Fair CLR 33.9 21.7 49% 38 76.38 1016.6
02 10:53 W 13 16.09 Fair CLR 31.7 21.7 55% 35 76.4 1017.2
02 09:53 SW 19 16.09 Fair CLR 30.6 22.2 61% 34 76.4 1017.2
02 08:53 SW 17 16.09 Fair CLR 28.3 21.1 65% 31 76.4 1017.3
02 07:53 S 13 16.09 Fair CLR 26.1 20.6 72% 28 76.4 1017.3
02 06:53 S 13 16.09 Fair CLR 23.9 19.4 27.8 23.9 76% 24 76.38 1016.9
02 05:53 S 15 16.09 Fair CLR 24.4 19.4 74% 25 76.35 1016.4
02 04:53 S 15 16.09 Fair CLR 25.6 19.4 69% 27 76.33 1015.9
02 03:53 S 15 16.09 Fair CLR 25.6 19.4 69% 27 76.33 1015.8
02 02:53 S 17 16.09 Fair CLR 26.7 19.4 64% 28 76.3 1015.6
02 01:53 S 19 16.09 Fair CLR 27.8 19.4 60% 29 76.3 1015.7
02 00:53 S 17 16.09 Fair CLR 27.2 20 31.7 26.7 65% 29 76.3 1015.6
01 23:53 S 13 16.09 Fair CLR 27.2 20.6 67% 29 76.28 1015.5
01 22:53 SE 15 16.09 Fair CLR 27.2 21.7 72% 29 76.28 1015.3
01 21:53 SE 13 16.09 Fair CLR 27.8 21.7 69% 30 76.25 1015.2
01 20:53 SE 13 16.09 Partly Cloudy SCT085 28.3 21.7 67% 31 76.23 1014.7
01 19:53 E 11 16.09 Fair CLR 28.3 21.7 67% 31 76.2 1014.5
01 18:53 E 9 16.09 Fair CLR 31.7 21.7 35.6 31.7 55% 35 76.2 1014.5
01 17:53 E 11 16.09 Fair CLR 33.9 21.1 47% 37 76.23 1014.7
01 16:53 E 13 16.09 Fair CLR 35 20.6 43% 38 76.23 1014.6
01 15:53 E 11 16.09 Fair CLR 35.6 18.9 37% 38 76.25 1015.1
01 14:53 SE 6 16.09 A Few Clouds FEW090 34.4 20.6 44% 37 76.3 1015.7
01 13:53 S 7 16.09 Fair CLR 34.4 20 43% 37 76.35 1016.3
01 12:53 Calm 16.09 Fair CLR 34.4 20.6 34.4 23.3 44% 37 76.38 1016.8
01 11:53 W 7 16.09 Fair CLR 32.8 21.1 50% 36 76.43 1017.6
01 10:53 SW 11 16.09 Fair CLR 30.6 21.1 57% 33 76.45 1017.8
01 09:53 SW 17 16.09 Fair CLR 28.9 20.6 61% 31 76.45 1018.0
01 08:53 S 20 16.09 Fair CLR 27.2 20.6 67% 29 76.48 1018.1
01 07:53 S 15 16.09 Fair CLR 25 19.4 71% 26 76.45 1017.9
01 06:53 S 17 16.09 Fair CLR 23.3 18.9 26.7 22.8 76% 76.4 1017.2
01 05:53 S 17 16.09 Fair CLR 22.8 18.3 76% 76.38 1016.8
01 04:53 S 17 16.09 Fair CLR 22.8 17.8 74% 76.35 1016.5
01 03:53 SW 17 16.09 Fair CLR 23.9 17.8 69% 25 76.35 1016.2
01 02:53 S 17 16.09 Fair CLR 24.4 17.8 67% 25 76.3 1015.9
01 01:53 S 15 16.09 Fair CLR 25 17.8 64% 26 76.33 1016.0
01 00:53 S 17 16.09 Fair CLR 26.7 18.3 31.1 26.1 60% 28 76.33 1015.9
31 23:53 S 15 16.09 Fair CLR 26.7 19.4 64% 28 76.3 1015.7
31 21:53 SE 13 16.09 Fair CLR 26.7 20.6 69% 28 76.3 1015.8
31 20:53 SE 15 16.09 Fair CLR 27.2 21.1 69% 29 76.25 1015.3
31 19:53 SE 13 16.09 Fair CLR 28.9 21.1 63% 31 76.2 1014.7
31 18:53 SE 15 16.09 Fair CLR 31.1 21.7 36.1 31.1 57% 34 76.2 1014.4
Date Time (cdt) Wind (kph) Vis. (km) Weather Sky Cond. Air Dwpt Max. Min. Relative Humidity Wind Chill (°C) Heat Index (°C) altimeter (cm) sea level (mb) 1 hr 3 hr 6 hr
6 hour
Temperature (ºC) Pressure Precipitation (cm)